createdAt,value
2023-06-22T00:00:14.190Z,100.00
2023-06-22T00:02:41.825Z,100.00
2023-06-22T00:05:09.653Z,100.00
2023-06-22T00:07:37.226Z,100.00
2023-06-22T00:10:07.286Z,100.00
2023-06-22T00:12:34.832Z,100.00
2023-06-22T00:15:02.383Z,100.00
2023-06-22T00:17:30.050Z,100.00
2023-06-22T00:19:59.690Z,100.00
2023-06-22T00:22:30.418Z,100.00
2023-06-22T00:24:58.383Z,100.00
2023-06-22T00:27:27.272Z,100.00
2023-06-22T00:29:54.901Z,100.00
2023-06-22T00:32:22.479Z,100.00
2023-06-22T00:34:51.479Z,100.00
2023-06-22T00:37:20.002Z,100.00
2023-06-22T00:39:47.525Z,100.00
2023-06-22T00:42:15.124Z,100.00
2023-06-22T00:44:45.035Z,100.00
2023-06-22T00:47:13.851Z,100.00
2023-06-22T00:49:41.665Z,100.00
2023-06-22T00:52:10.227Z,100.00
2023-06-22T00:54:38.264Z,100.00
2023-06-22T00:57:06.220Z,100.00
2023-06-22T00:59:34.248Z,100.00
2023-06-22T01:02:03.227Z,100.00
2023-06-22T01:04:37.218Z,100.00
2023-06-22T01:07:13.959Z,100.00
2023-06-22T01:10:05.004Z,100.00
2023-06-22T01:12:36.526Z,100.00
2023-06-22T01:15:09.952Z,100.00
2023-06-22T01:17:42.938Z,100.00
2023-06-22T01:20:13.058Z,100.00
2023-06-22T01:22:52.238Z,100.00
2023-06-22T01:25:23.076Z,100.00
2023-06-22T01:28:02.246Z,100.00
2023-06-22T01:30:34.810Z,100.00
2023-06-22T01:33:07.163Z,100.00
2023-06-22T01:35:35.565Z,100.00
2023-06-22T01:38:03.624Z,100.00
2023-06-22T01:40:32.726Z,100.00
2023-06-22T01:43:02.278Z,100.00
2023-06-22T01:45:32.089Z,100.00
2023-06-22T01:47:59.810Z,100.00
2023-06-22T01:50:28.353Z,100.00
2023-06-22T01:52:56.111Z,100.00
2023-06-22T01:55:23.638Z,100.00
2023-06-22T01:57:51.277Z,100.00
2023-06-22T02:00:24.148Z,100.00
2023-06-22T02:02:58.852Z,100.00
2023-06-22T02:05:30.943Z,100.00
2023-06-22T02:08:04.490Z,100.00
2023-06-22T02:10:33.524Z,100.00
2023-06-22T02:13:02.372Z,100.00
2023-06-22T02:15:30.751Z,100.00
2023-06-22T02:17:59.817Z,100.00
2023-06-22T02:20:27.611Z,100.00
2023-06-22T02:22:55.406Z,100.00
2023-06-22T02:25:23.030Z,100.00
2023-06-22T02:27:50.646Z,100.00
2023-06-22T02:30:18.237Z,100.00
2023-06-22T02:32:45.901Z,100.00
2023-06-22T02:35:14.827Z,100.00
2023-06-22T02:37:43.416Z,100.00
2023-06-22T02:40:11.486Z,100.00
2023-06-22T02:42:39.718Z,100.00
2023-06-22T02:45:08.251Z,100.00
2023-06-22T02:47:35.883Z,100.00
2023-06-22T02:50:03.517Z,100.00
2023-06-22T02:52:32.364Z,100.00
2023-06-22T02:54:59.880Z,100.00
2023-06-22T02:57:27.512Z,100.00
2023-06-22T02:59:56.340Z,100.00
2023-06-22T03:02:23.961Z,100.00
2023-06-22T03:04:51.506Z,100.00
2023-06-22T03:07:19.328Z,100.00
2023-06-22T03:09:48.225Z,100.00
2023-06-22T03:12:15.776Z,100.00
2023-06-22T03:14:43.308Z,100.00
2023-06-22T03:17:11.921Z,100.00
2023-06-22T03:19:39.456Z,100.00
2023-06-22T03:22:08.028Z,100.00
2023-06-22T03:24:35.726Z,100.00
2023-06-22T03:27:06.042Z,100.00
2023-06-22T03:29:33.617Z,100.00
2023-06-22T03:32:01.287Z,100.00
2023-06-22T03:34:29.463Z,100.00
2023-06-22T03:36:56.985Z,100.00
2023-06-22T03:39:24.610Z,100.00
2023-06-22T03:41:52.131Z,100.00
2023-06-22T03:44:20.984Z,100.00
2023-06-22T03:46:48.581Z,100.00
2023-06-22T03:49:16.166Z,100.00
2023-06-22T03:51:43.689Z,100.00
2023-06-22T03:54:11.862Z,100.00
2023-06-22T03:56:39.535Z,100.00
2023-06-22T03:59:07.067Z,100.00
2023-06-22T04:01:36.426Z,100.00
2023-06-22T04:04:04.271Z,100.00
2023-06-22T04:06:31.866Z,100.00
2023-06-22T04:08:59.365Z,100.00
2023-06-22T04:11:26.911Z,100.00
2023-06-22T04:13:54.826Z,100.00
2023-06-22T04:16:22.354Z,100.00
2023-06-22T04:18:51.259Z,100.00
2023-06-22T04:21:20.640Z,100.00
2023-06-22T04:23:48.231Z,100.00
2023-06-22T04:26:16.145Z,100.00
2023-06-22T04:28:44.164Z,100.00
2023-06-22T04:31:11.950Z,100.00
2023-06-22T04:33:41.632Z,100.00
2023-06-22T04:36:14.236Z,100.00
2023-06-22T04:38:42.623Z,100.00
2023-06-22T04:41:15.332Z,100.00
2023-06-22T04:43:42.850Z,100.00
2023-06-22T04:46:10.434Z,100.00
2023-06-22T04:48:37.969Z,100.00
2023-06-22T04:51:05.775Z,100.00
2023-06-22T04:53:34.758Z,100.00
2023-06-22T04:56:05.392Z,100.00
2023-06-22T04:58:33.490Z,100.00
2023-06-22T05:01:01.077Z,100.00
2023-06-22T05:03:28.887Z,100.00
2023-06-22T05:05:56.612Z,100.00
2023-06-22T05:08:27.559Z,100.00
2023-06-22T05:11:04.990Z,100.00
2023-06-22T05:13:34.135Z,93.52
2023-06-22T05:16:03.882Z,97.28
2023-06-22T05:18:32.276Z,100.00
2023-06-22T05:21:00.875Z,100.00
2023-06-22T05:23:28.514Z,100.00
2023-06-22T05:25:58.892Z,100.00
2023-06-22T05:28:26.692Z,100.00
2023-06-22T05:30:54.267Z,100.00
2023-06-22T05:33:21.766Z,95.23
2023-06-22T05:35:49.236Z,91.25
2023-06-22T05:38:16.856Z,86.25
2023-06-22T05:40:44.372Z,86.79
2023-06-22T05:43:13.207Z,86.85
2023-06-22T05:45:40.739Z,89.75
2023-06-22T05:48:08.324Z,93.41
2023-06-22T05:50:35.925Z,95.28
2023-06-22T05:53:03.420Z,87.83
2023-06-22T05:55:31.611Z,80.63
2023-06-22T05:57:59.936Z,70.06
2023-06-22T06:00:29.085Z,69.13
2023-06-22T06:02:57.009Z,66.97
2023-06-22T06:05:26.575Z,60.41
2023-06-22T06:07:54.117Z,60.18
2023-06-22T06:10:21.617Z,56.02
2023-06-22T06:12:49.151Z,52.47
2023-06-22T06:15:16.686Z,54.57
2023-06-22T06:17:49.465Z,54.15
2023-06-22T06:20:17.122Z,61.26
2023-06-22T06:22:44.857Z,57.43
2023-06-22T06:25:17.356Z,59.32
2023-06-22T06:27:45.226Z,64.52
2023-06-22T06:30:13.752Z,65.95
2023-06-22T06:32:41.792Z,64.11
2023-06-22T06:35:12.099Z,64.16
2023-06-22T06:37:41.178Z,65.42
2023-06-22T06:40:11.621Z,62.58
2023-06-22T06:42:41.482Z,55.38
2023-06-22T06:45:09.914Z,59.11
2023-06-22T06:47:37.538Z,54.31
2023-06-22T06:50:06.828Z,55.69
2023-06-22T06:52:37.787Z,53.78
2023-06-22T06:55:09.083Z,55.15
2023-06-22T06:57:38.081Z,52.80
2023-06-22T07:00:10.314Z,50.68
2023-06-22T07:02:38.022Z,48.94
2023-06-22T07:05:06.399Z,51.86
2023-06-22T07:07:38.187Z,54.83
2023-06-22T07:10:07.337Z,57.42
2023-06-22T07:12:35.126Z,59.34
2023-06-22T07:15:09.027Z,56.73
2023-06-22T07:17:36.811Z,52.97
2023-06-22T07:20:11.213Z,49.37
2023-06-22T07:22:40.743Z,45.61
2023-06-22T07:25:10.953Z,44.05
2023-06-22T07:27:39.563Z,45.48
2023-06-22T07:30:08.422Z,45.07
2023-06-22T07:32:35.956Z,44.18
2023-06-22T07:35:03.649Z,44.81
2023-06-22T07:37:31.604Z,42.50
2023-06-22T07:40:00.474Z,43.45
2023-06-22T07:42:28.661Z,43.16
2023-06-22T07:44:57.040Z,46.59
2023-06-22T07:47:26.349Z,45.40
2023-06-22T07:49:55.766Z,46.58
2023-06-22T07:52:26.099Z,44.78
2023-06-22T07:54:53.702Z,44.73
2023-06-22T07:57:22.695Z,44.29
2023-06-22T07:59:50.242Z,45.52
2023-06-22T08:02:17.841Z,41.42
2023-06-22T08:04:45.790Z,41.40
2023-06-22T08:07:13.299Z,41.66
2023-06-22T08:09:41.012Z,40.22
2023-06-22T08:12:09.808Z,38.80
2023-06-22T08:14:40.738Z,37.43
2023-06-22T08:17:08.236Z,37.43
2023-06-22T08:19:35.736Z,37.75
2023-06-22T08:22:03.293Z,38.27
2023-06-22T08:24:31.606Z,38.17
2023-06-22T08:26:59.170Z,37.81
2023-06-22T08:29:26.681Z,37.82
2023-06-22T08:31:55.574Z,37.96
2023-06-22T08:34:25.747Z,38.56
2023-06-22T08:36:53.592Z,37.71
2023-06-22T08:39:22.032Z,38.85
2023-06-22T08:41:49.869Z,39.77
2023-06-22T08:44:20.503Z,40.22
2023-06-22T08:46:49.543Z,38.38
2023-06-22T08:49:20.297Z,38.91
2023-06-22T08:51:50.385Z,37.41
2023-06-22T08:54:17.907Z,37.22
2023-06-22T08:56:45.753Z,37.39
2023-06-22T08:59:13.367Z,35.67
2023-06-22T09:01:40.947Z,35.21
2023-06-22T09:04:10.724Z,36.22
2023-06-22T09:06:45.920Z,36.73
2023-06-22T09:09:14.732Z,35.79
2023-06-22T09:11:42.422Z,35.62
2023-06-22T09:14:10.251Z,34.29
2023-06-22T09:16:37.764Z,33.99
2023-06-22T09:19:05.375Z,34.14
2023-06-22T09:21:34.692Z,33.95
2023-06-22T09:24:03.880Z,33.83
2023-06-22T09:26:31.416Z,33.74
2023-06-22T09:28:59.080Z,33.67
2023-06-22T09:31:27.274Z,33.78
2023-06-22T09:33:55.500Z,34.10
2023-06-22T09:36:23.128Z,33.77
2023-06-22T09:38:56.158Z,34.18
2023-06-22T09:41:25.447Z,33.85
2023-06-22T09:43:55.488Z,33.92
2023-06-22T09:46:26.216Z,34.31
2023-06-22T09:48:53.867Z,34.61
2023-06-22T09:51:22.760Z,34.62
2023-06-22T09:53:50.409Z,33.52
2023-06-22T09:56:18.055Z,33.79
2023-06-22T09:58:48.313Z,33.93
2023-06-22T10:01:16.589Z,32.98
2023-06-22T10:03:44.323Z,32.42
2023-06-22T10:06:11.980Z,32.66
2023-06-22T10:08:40.243Z,33.45
2023-06-22T10:11:07.783Z,34.69
2023-06-22T10:13:35.309Z,34.67
2023-06-22T10:16:04.232Z,34.13
2023-06-22T10:18:31.799Z,33.07
2023-06-22T10:20:59.314Z,33.44
2023-06-22T10:23:26.931Z,34.52
2023-06-22T10:25:54.510Z,33.89
2023-06-22T10:28:22.060Z,32.45
2023-06-22T10:30:49.582Z,32.57
2023-06-22T10:33:18.778Z,31.89
2023-06-22T10:35:46.279Z,31.08
2023-06-22T10:38:13.777Z,31.14
2023-06-22T10:40:41.470Z,32.54
2023-06-22T10:43:08.988Z,33.41
2023-06-22T10:45:36.470Z,32.71
2023-06-22T10:48:04.151Z,32.23
2023-06-22T10:50:33.035Z,32.27
2023-06-22T10:53:00.895Z,33.63
2023-06-22T10:55:34.646Z,33.72
2023-06-22T10:58:08.846Z,33.57
2023-06-22T11:00:36.905Z,32.81
2023-06-22T11:03:04.664Z,31.90
2023-06-22T11:05:33.767Z,31.49
2023-06-22T11:08:01.309Z,31.41
2023-06-22T11:10:29.221Z,31.99
2023-06-22T11:12:58.870Z,31.46
2023-06-22T11:15:26.412Z,30.62
2023-06-22T11:17:54.006Z,31.29
2023-06-22T11:20:21.665Z,31.41
2023-06-22T11:22:50.504Z,32.45
2023-06-22T11:25:18.023Z,31.64
2023-06-22T11:27:45.572Z,32.66
2023-06-22T11:30:13.442Z,31.74
2023-06-22T11:32:41.037Z,32.50
2023-06-22T11:35:09.384Z,31.38
2023-06-22T11:37:36.907Z,31.38
2023-06-22T11:40:09.610Z,31.68
2023-06-22T11:42:37.261Z,31.70
2023-06-22T11:45:08.627Z,32.00
2023-06-22T11:47:37.344Z,32.20
2023-06-22T11:50:06.091Z,32.15
2023-06-22T11:52:33.856Z,31.98
2023-06-22T11:55:03.845Z,31.37
2023-06-22T11:57:34.854Z,33.24
2023-06-22T12:00:02.387Z,32.91
2023-06-22T12:02:30.040Z,32.93
2023-06-22T12:04:59.164Z,31.72
2023-06-22T12:07:26.688Z,33.03
2023-06-22T12:09:54.243Z,31.89
2023-06-22T12:12:21.803Z,31.11
2023-06-22T12:14:50.649Z,31.02
2023-06-22T12:17:18.161Z,30.12
2023-06-22T12:19:45.680Z,29.88
2023-06-22T12:22:13.188Z,30.68
2023-06-22T12:24:40.694Z,32.47
2023-06-22T12:27:08.350Z,32.79
2023-06-22T12:29:35.883Z,32.82
2023-06-22T12:32:05.491Z,31.75
2023-06-22T12:34:32.990Z,31.36
2023-06-22T12:37:00.554Z,31.69
2023-06-22T12:39:28.067Z,30.80
2023-06-22T12:41:55.689Z,30.10
2023-06-22T12:44:23.212Z,29.99
2023-06-22T12:46:50.728Z,30.47
2023-06-22T12:49:19.586Z,29.46
2023-06-22T12:51:47.484Z,29.72
2023-06-22T12:54:15.016Z,29.25
2023-06-22T12:56:44.844Z,28.73
2023-06-22T12:59:12.589Z,29.20
2023-06-22T13:01:40.247Z,27.69
2023-06-22T13:04:07.777Z,28.80
2023-06-22T13:06:36.639Z,29.62
2023-06-22T13:11:36.560Z,30.56
2023-06-22T13:14:05.276Z,31.75
2023-06-22T13:16:34.418Z,32.50
2023-06-22T13:19:01.958Z,32.53
2023-06-22T13:21:29.470Z,31.62
2023-06-22T13:23:58.833Z,31.30
2023-06-22T13:26:26.562Z,31.93
2023-06-22T13:28:54.719Z,31.14
2023-06-22T13:31:22.890Z,32.08
2023-06-22T13:33:53.152Z,32.35
2023-06-22T13:36:20.956Z,31.73
2023-06-22T13:38:48.459Z,31.41
2023-06-22T13:41:17.300Z,31.27
2023-06-22T13:43:44.785Z,31.62
2023-06-22T13:46:12.357Z,30.32
2023-06-22T13:48:39.966Z,30.65
2023-06-22T13:51:07.480Z,31.76
2023-06-22T13:53:34.986Z,31.65
2023-06-22T13:56:02.475Z,32.02
2023-06-22T13:58:31.297Z,32.31
2023-06-22T14:00:58.840Z,32.83
2023-06-22T14:03:26.347Z,33.20
2023-06-22T14:05:57.391Z,32.21
2023-06-22T14:08:41.034Z,33.02
2023-06-22T14:11:09.469Z,34.03
2023-06-22T14:13:38.353Z,34.50
2023-06-22T14:16:06.886Z,33.21
2023-06-22T14:18:34.432Z,33.84
2023-06-22T14:21:01.956Z,32.60
2023-06-22T14:23:29.702Z,33.26
2023-06-22T14:25:57.204Z,33.00
2023-06-22T14:28:24.692Z,32.90
2023-06-22T14:30:53.532Z,32.63
2023-06-22T14:33:21.057Z,33.57
2023-06-22T14:35:48.642Z,32.19
2023-06-22T14:38:16.173Z,32.77
2023-06-22T14:40:59.695Z,32.34
2023-06-22T14:43:31.404Z,33.63
2023-06-22T14:46:00.435Z,33.85
2023-06-22T14:48:28.012Z,31.66
2023-06-22T14:50:57.242Z,32.80
2023-06-22T14:53:25.309Z,32.91
2023-06-22T14:55:52.816Z,31.41
2023-06-22T14:58:20.300Z,30.75
2023-06-22T15:00:47.828Z,31.84
2023-06-22T15:03:22.503Z,33.02
2023-06-22T15:05:50.177Z,32.81
2023-06-22T15:08:17.664Z,32.06
2023-06-22T15:10:45.160Z,32.55
2023-06-22T15:13:12.825Z,32.33
2023-06-22T15:15:41.365Z,33.52
2023-06-22T15:18:08.915Z,34.09
2023-06-22T15:20:37.776Z,34.62
2023-06-22T15:23:05.334Z,34.41
2023-06-22T15:25:32.880Z,34.95
2023-06-22T15:28:00.446Z,32.39
2023-06-22T15:30:28.257Z,31.67
2023-06-22T15:32:56.035Z,31.25
2023-06-22T15:35:23.962Z,31.82
2023-06-22T15:37:53.175Z,31.69
2023-06-22T15:40:20.792Z,31.45
2023-06-22T15:42:50.227Z,31.82
2023-06-22T15:45:19.088Z,30.82
2023-06-22T15:47:46.790Z,32.78
2023-06-22T15:50:14.421Z,29.62
2023-06-22T15:52:42.072Z,30.30
2023-06-22T15:55:11.213Z,30.52
2023-06-22T15:57:38.708Z,31.60
2023-06-22T16:00:08.669Z,31.48
2023-06-22T16:02:36.257Z,31.23
2023-06-22T16:05:04.768Z,31.85
2023-06-22T16:07:32.276Z,32.44
2023-06-22T16:09:59.888Z,32.73
2023-06-22T16:12:30.161Z,31.48
2023-06-22T16:14:57.749Z,30.71
2023-06-22T16:17:27.874Z,30.38
2023-06-22T16:19:55.655Z,30.48
2023-06-22T16:22:23.289Z,31.93
2023-06-22T16:24:53.041Z,31.47
2023-06-22T16:27:20.883Z,31.26
2023-06-22T16:29:49.701Z,31.65
2023-06-22T16:32:18.706Z,30.99
2023-06-22T16:34:46.885Z,30.87
2023-06-22T16:37:14.865Z,31.62
2023-06-22T16:39:42.412Z,32.58
2023-06-22T16:42:10.178Z,33.12
2023-06-22T16:44:37.965Z,33.41
2023-06-22T16:47:07.774Z,32.85
2023-06-22T16:49:36.482Z,33.11
2023-06-22T16:52:04.334Z,33.94
2023-06-22T16:54:32.429Z,33.70
2023-06-22T16:57:01.520Z,33.83
2023-06-22T16:59:29.277Z,32.87
2023-06-22T17:01:58.849Z,32.81
2023-06-22T17:04:31.500Z,32.82
2023-06-22T17:07:03.043Z,30.93
2023-06-22T17:09:31.957Z,31.67
2023-06-22T17:12:01.955Z,32.07
2023-06-22T17:14:29.514Z,31.99
2023-06-22T17:16:57.735Z,33.30
2023-06-22T17:19:25.305Z,33.41
2023-06-22T17:21:54.173Z,31.92
2023-06-22T17:24:22.183Z,32.36
2023-06-22T17:26:50.430Z,33.98
2023-06-22T17:29:17.971Z,34.12
2023-06-22T17:31:46.568Z,37.93
2023-06-22T17:34:15.985Z,37.78
2023-06-22T17:36:48.003Z,36.86
2023-06-22T17:39:19.777Z,37.44
2023-06-22T17:41:48.750Z,36.80
2023-06-22T17:44:20.806Z,38.17
2023-06-22T17:46:48.321Z,38.58
2023-06-22T17:49:19.063Z,37.66
2023-06-22T17:51:47.122Z,37.75
2023-06-22T17:54:14.638Z,38.17
2023-06-22T17:56:43.618Z,38.71
2023-06-22T17:59:11.208Z,39.33
2023-06-22T18:01:40.191Z,39.82
2023-06-22T18:04:09.295Z,40.74
2023-06-22T18:06:43.795Z,41.15
2023-06-22T18:09:14.025Z,42.90
2023-06-22T18:11:46.115Z,43.02
2023-06-22T18:14:16.652Z,44.97
2023-06-22T18:16:46.934Z,47.54
2023-06-22T18:19:15.507Z,47.38
2023-06-22T18:21:43.917Z,49.37
2023-06-22T18:24:11.757Z,49.92
2023-06-22T18:26:39.931Z,56.78
2023-06-22T18:29:09.179Z,71.54
2023-06-22T18:31:37.241Z,81.63
2023-06-22T18:34:06.554Z,96.38
2023-06-22T18:36:37.371Z,100.00
2023-06-22T18:39:09.213Z,100.00
2023-06-22T18:41:38.140Z,100.00
2023-06-22T18:44:06.576Z,100.00
2023-06-22T18:46:37.506Z,100.00
2023-06-22T18:49:13.525Z,100.00
2023-06-22T18:51:58.172Z,100.00
2023-06-22T18:54:31.648Z,100.00
2023-06-22T18:57:01.924Z,100.00
2023-06-22T18:59:43.771Z,100.00
2023-06-22T19:02:14.356Z,100.00
2023-06-22T19:04:43.526Z,100.00
2023-06-22T19:07:13.094Z,100.00
2023-06-22T19:09:40.715Z,100.00
2023-06-22T19:12:23.102Z,100.00
2023-06-22T19:15:12.780Z,100.00
2023-06-22T19:17:43.823Z,100.00
2023-06-22T19:20:13.407Z,100.00
2023-06-22T19:22:56.704Z,100.00
2023-06-22T19:25:28.228Z,100.00
2023-06-22T19:27:56.912Z,100.00
2023-06-22T19:30:25.119Z,100.00
2023-06-22T19:32:54.216Z,100.00
2023-06-22T19:35:22.379Z,100.00
2023-06-22T19:37:50.507Z,100.00
2023-06-22T19:40:22.189Z,100.00
2023-06-22T19:42:55.338Z,100.00
2023-06-22T19:45:23.135Z,100.00
2023-06-22T19:47:52.395Z,100.00
2023-06-22T19:50:25.868Z,100.00
2023-06-22T19:52:55.897Z,100.00
2023-06-22T19:55:23.653Z,100.00
2023-06-22T19:57:52.391Z,100.00
2023-06-22T20:00:22.788Z,100.00
2023-06-22T20:02:52.409Z,100.00
2023-06-22T20:05:22.528Z,100.00
2023-06-22T20:07:50.102Z,100.00
2023-06-22T20:10:20.356Z,100.00
2023-06-22T20:12:50.352Z,100.00
2023-06-22T20:15:25.340Z,100.00
2023-06-22T20:18:04.357Z,100.00
2023-06-22T20:20:35.062Z,100.00
2023-06-22T20:23:04.001Z,100.00
2023-06-22T20:25:33.720Z,100.00
2023-06-22T20:28:11.238Z,100.00
2023-06-22T20:30:40.794Z,100.00
2023-06-22T20:33:17.102Z,100.00
2023-06-22T20:35:47.150Z,100.00
2023-06-22T20:38:15.320Z,100.00
2023-06-22T20:40:42.859Z,100.00
2023-06-22T20:43:10.563Z,100.00
2023-06-22T20:45:40.155Z,100.00
2023-06-22T20:48:09.557Z,100.00
2023-06-22T20:50:37.762Z,100.00
2023-06-22T20:53:08.211Z,100.00
2023-06-22T20:55:39.822Z,100.00
2023-06-22T20:58:08.867Z,100.00
2023-06-22T21:00:37.857Z,100.00
2023-06-22T21:03:09.261Z,100.00
2023-06-22T21:05:36.902Z,100.00
2023-06-22T21:08:06.321Z,100.00
2023-06-22T21:10:33.872Z,100.00
2023-06-22T21:13:02.126Z,100.00
2023-06-22T21:15:30.099Z,100.00
2023-06-22T21:17:57.938Z,100.00
2023-06-22T21:20:25.536Z,100.00
2023-06-22T21:22:53.103Z,100.00
2023-06-22T21:25:22.281Z,100.00
2023-06-22T21:27:51.110Z,100.00
2023-06-22T21:30:18.708Z,100.00
2023-06-22T21:32:46.305Z,100.00
2023-06-22T21:35:14.968Z,100.00
2023-06-22T21:37:44.594Z,100.00
2023-06-22T21:40:12.780Z,100.00
2023-06-22T21:42:41.684Z,100.00
2023-06-22T21:45:10.129Z,100.00
2023-06-22T21:47:38.229Z,100.00
2023-06-22T21:50:06.837Z,100.00
2023-06-22T21:52:34.530Z,100.00
2023-06-22T21:55:02.172Z,100.00
2023-06-22T21:57:29.721Z,100.00
2023-06-22T21:59:58.645Z,100.00
2023-06-22T22:02:26.900Z,100.00
2023-06-22T22:04:54.637Z,100.00
2023-06-22T22:07:22.265Z,100.00
2023-06-22T22:09:49.811Z,100.00
2023-06-22T22:12:17.411Z,100.00
2023-06-22T22:14:46.836Z,100.00
2023-06-22T22:17:15.755Z,100.00
2023-06-22T22:19:43.370Z,100.00
2023-06-22T22:22:11.075Z,100.00
2023-06-22T22:24:38.587Z,100.00
2023-06-22T22:27:06.716Z,100.00
2023-06-22T22:29:35.134Z,100.00
2023-06-22T22:32:02.679Z,100.00
2023-06-22T22:34:31.534Z,100.00
2023-06-22T22:36:59.056Z,100.00
2023-06-22T22:39:35.546Z,100.00
2023-06-22T22:42:03.212Z,100.00
2023-06-22T22:44:30.795Z,100.00
2023-06-22T22:46:58.944Z,100.00
2023-06-22T22:49:26.540Z,100.00
2023-06-22T22:51:55.421Z,100.00
2023-06-22T22:54:23.602Z,100.00
2023-06-22T22:56:51.167Z,100.00
2023-06-22T22:59:18.749Z,100.00
2023-06-22T23:01:46.405Z,100.00
2023-06-22T23:04:18.984Z,100.00
2023-06-22T23:06:46.703Z,100.00
2023-06-22T23:09:15.630Z,100.00
2023-06-22T23:11:43.205Z,100.00
2023-06-22T23:14:11.291Z,100.00
2023-06-22T23:16:39.298Z,100.00
2023-06-22T23:19:07.319Z,100.00
2023-06-22T23:21:34.912Z,100.00
2023-06-22T23:24:04.345Z,100.00
2023-06-22T23:26:33.318Z,100.00
2023-06-22T23:29:00.849Z,100.00
2023-06-22T23:31:28.466Z,100.00
2023-06-22T23:33:56.070Z,100.00
2023-06-22T23:36:23.625Z,100.00
2023-06-22T23:38:51.238Z,100.00
2023-06-22T23:41:18.848Z,100.00
2023-06-22T23:43:48.110Z,100.00
2023-06-22T23:46:15.747Z,100.00
2023-06-22T23:48:45.658Z,100.00
2023-06-22T23:51:13.914Z,100.00
2023-06-22T23:53:41.857Z,100.00
2023-06-22T23:56:10.184Z,100.00
2023-06-22T23:58:37.775Z,100.00
